createdAt,value
2022-09-10T00:00:48.487Z,14.82
2022-09-10T00:04:00.777Z,14.83
2022-09-10T00:07:10.952Z,14.84
2022-09-10T00:10:21.266Z,14.83
2022-09-10T00:13:31.724Z,14.83
2022-09-10T00:16:41.951Z,14.83
2022-09-10T00:19:55.068Z,14.82
2022-09-10T00:23:05.267Z,14.80
2022-09-10T00:26:19.958Z,14.80
2022-09-10T00:29:31.677Z,14.78
2022-09-10T00:32:41.687Z,14.77
2022-09-10T00:35:53.422Z,14.78
2022-09-10T00:39:06.663Z,14.79
2022-09-10T00:42:18.985Z,14.80
2022-09-10T00:45:31.656Z,14.75
2022-09-10T00:48:42.017Z,14.70
2022-09-10T00:51:54.729Z,14.72
2022-09-10T00:55:05.591Z,14.72
2022-09-10T00:58:18.407Z,14.69
2022-09-10T01:01:28.916Z,14.76
2022-09-10T01:04:40.233Z,14.77
2022-09-10T01:07:53.050Z,14.77
2022-09-10T01:11:15.989Z,14.79
2022-09-10T01:14:56.512Z,14.84
2022-09-10T01:18:21.750Z,14.85
2022-09-10T01:21:35.895Z,14.84
2022-09-10T01:24:54.651Z,14.80
2022-09-10T01:28:09.861Z,14.78
2022-09-10T01:31:24.952Z,14.76
2022-09-10T01:34:41.742Z,14.71
2022-09-10T01:38:00.215Z,14.70
2022-09-10T01:41:10.659Z,14.71
2022-09-10T01:44:43.333Z,14.74
2022-09-10T01:48:09.979Z,14.73
2022-09-10T01:51:28.373Z,14.77
2022-09-10T01:54:51.935Z,14.79
2022-09-10T01:58:11.911Z,14.80
2022-09-10T02:01:30.277Z,14.82
2022-09-10T02:04:41.824Z,14.79
2022-09-10T02:07:56.142Z,14.79
2022-09-10T02:11:10.522Z,14.77
2022-09-10T02:14:21.606Z,14.74
2022-09-10T02:17:35.261Z,14.68
2022-09-10T02:20:46.994Z,14.70
2022-09-10T02:24:00.770Z,14.66
2022-09-10T02:27:11.639Z,14.65
2022-09-10T02:30:24.731Z,14.63
2022-09-10T02:33:36.595Z,14.66
2022-09-10T02:36:46.966Z,14.69
2022-09-10T02:39:56.872Z,14.62
2022-09-10T02:43:07.291Z,14.63
2022-09-10T02:46:17.490Z,14.66
2022-09-10T02:49:29.133Z,14.65
2022-09-10T02:52:39.298Z,14.69
2022-09-10T02:55:49.914Z,14.74
2022-09-10T02:59:00.421Z,14.76
2022-09-10T03:02:10.781Z,14.78
2022-09-10T03:05:22.816Z,14.79
2022-09-10T03:08:33.147Z,14.80
2022-09-10T03:11:43.111Z,14.75
2022-09-10T03:14:53.396Z,14.70
2022-09-10T03:18:04.169Z,14.67
2022-09-10T03:21:18.329Z,14.67
2022-09-10T03:24:28.801Z,14.69
2022-09-10T03:27:39.615Z,14.69
2022-09-10T03:30:49.988Z,14.67
2022-09-10T03:34:00.816Z,14.64
2022-09-10T03:37:12.393Z,14.66
2022-09-10T03:40:23.106Z,14.66
2022-09-10T03:43:33.278Z,14.65
2022-09-10T03:46:43.670Z,14.64
2022-09-10T03:49:54.089Z,14.67
2022-09-10T03:53:05.587Z,14.65
2022-09-10T03:56:19.886Z,14.63
2022-09-10T03:59:30.820Z,14.63
2022-09-10T04:02:42.100Z,14.63
2022-09-10T04:05:52.084Z,14.64
2022-09-10T04:09:03.584Z,14.64
2022-09-10T04:12:13.642Z,14.62
2022-09-10T04:15:24.779Z,14.63
2022-09-10T04:18:35.123Z,14.63
2022-09-10T04:21:45.469Z,14.60
2022-09-10T04:24:57.163Z,14.59
2022-09-10T04:28:07.108Z,14.58
2022-09-10T04:31:17.415Z,14.56
2022-09-10T04:34:27.492Z,14.57
2022-09-10T04:37:37.590Z,14.57
2022-09-10T04:40:49.087Z,14.55
2022-09-10T04:43:59.267Z,14.51
2022-09-10T04:47:09.321Z,14.45
2022-09-10T04:50:19.584Z,14.46
2022-09-10T04:53:31.173Z,14.44
2022-09-10T04:56:43.201Z,14.45
2022-09-10T04:59:53.740Z,14.44
2022-09-10T05:03:06.050Z,14.43
2022-09-10T05:06:16.506Z,14.38
2022-09-10T05:09:31.104Z,14.37
2022-09-10T05:12:42.925Z,14.40
2022-09-10T05:15:52.982Z,14.41
2022-09-10T05:19:03.430Z,14.42
2022-09-10T05:22:13.996Z,14.42
2022-09-10T05:25:25.130Z,14.37
2022-09-10T05:28:37.144Z,14.39
2022-09-10T05:31:47.582Z,14.40
2022-09-10T05:34:57.482Z,14.42
2022-09-10T05:38:08.182Z,14.43
2022-09-10T05:41:18.399Z,14.42
2022-09-10T05:44:29.811Z,14.38
2022-09-10T05:47:39.924Z,14.37
2022-09-10T05:50:50.207Z,14.42
2022-09-10T05:54:00.246Z,14.43
2022-09-10T05:57:10.467Z,14.45
2022-09-10T06:00:22.039Z,14.50
2022-09-10T06:03:32.386Z,14.51
2022-09-10T06:06:42.431Z,14.55
2022-09-10T06:09:52.612Z,14.59
2022-09-10T06:13:02.782Z,14.62
2022-09-10T06:16:14.927Z,14.69
2022-09-10T06:19:25.355Z,14.74
2022-09-10T06:22:35.435Z,14.82
2022-09-10T06:25:46.040Z,14.83
2022-09-10T06:28:56.810Z,14.84
2022-09-10T06:32:08.593Z,14.84
2022-09-10T06:35:18.978Z,14.89
2022-09-10T06:38:31.023Z,14.88
2022-09-10T06:41:44.983Z,14.96
2022-09-10T06:44:57.597Z,15.05
2022-09-10T06:51:40.513Z,15.22
2022-09-10T06:54:51.426Z,15.36
2022-09-10T06:58:01.724Z,15.42
2022-09-10T07:01:14.687Z,15.39
2022-09-10T07:04:26.195Z,15.42
2022-09-10T07:07:36.362Z,15.43
2022-09-10T07:10:46.673Z,15.51
2022-09-10T07:13:56.760Z,15.64
2022-09-10T07:17:06.995Z,15.67
2022-09-10T07:20:18.841Z,15.82
2022-09-10T07:23:29.003Z,15.91
2022-09-10T07:26:39.585Z,15.97
2022-09-10T07:29:49.886Z,16.11
2022-09-10T07:33:00.024Z,16.32
2022-09-10T07:36:13.152Z,16.39
2022-09-10T07:39:25.903Z,16.56
2022-09-10T07:42:37.342Z,16.61
2022-09-10T07:45:47.539Z,16.74
2022-09-10T07:48:58.868Z,16.85
2022-09-10T07:52:10.509Z,16.94
2022-09-10T07:55:20.660Z,16.98
2022-09-10T07:58:31.720Z,16.77
2022-09-10T08:01:42.221Z,16.78
2022-09-10T08:04:52.565Z,16.70
2022-09-10T08:08:04.079Z,16.71
2022-09-10T08:11:17.416Z,16.89
2022-09-10T08:14:27.552Z,16.89
2022-09-10T08:17:38.419Z,16.94
2022-09-10T08:20:55.526Z,16.86
2022-09-10T08:24:08.656Z,16.85
2022-09-10T08:27:19.118Z,16.94
2022-09-10T08:30:31.143Z,16.90
2022-09-10T08:33:41.706Z,16.80
2022-09-10T08:36:53.051Z,16.89
2022-09-10T08:40:05.752Z,16.90
2022-09-10T08:43:17.311Z,17.05
2022-09-10T08:46:30.570Z,17.05
2022-09-10T08:49:45.393Z,17.22
2022-09-10T08:53:01.546Z,17.30
2022-09-10T08:56:17.649Z,17.33
2022-09-10T08:59:33.350Z,17.33
2022-09-10T09:02:51.060Z,17.40
2022-09-10T09:06:03.389Z,17.55
2022-09-10T09:09:15.798Z,17.75
2022-09-10T09:12:38.520Z,17.75
2022-09-10T09:15:58.150Z,17.79
2022-09-10T09:19:17.136Z,17.75
2022-09-10T09:22:39.877Z,17.82
2022-09-10T09:25:52.552Z,17.87
2022-09-10T09:29:08.670Z,17.94
2022-09-10T09:32:21.420Z,18.05
2022-09-10T09:35:37.008Z,17.96
2022-09-10T09:38:50.884Z,18.13
2022-09-10T09:42:09.059Z,18.25
2022-09-10T09:45:28.992Z,18.22
2022-09-10T09:48:42.165Z,18.13
2022-09-10T09:51:52.711Z,18.20
2022-09-10T09:55:15.721Z,18.37
2022-09-10T09:58:32.077Z,18.62
2022-09-10T10:01:44.931Z,18.70
2022-09-10T10:05:00.827Z,18.81
2022-09-10T10:08:30.289Z,18.84
2022-09-10T10:11:46.944Z,18.88
2022-09-10T10:14:57.122Z,18.66
2022-09-10T10:21:21.186Z,18.42
2022-09-10T10:24:33.546Z,18.28
2022-09-10T10:27:45.335Z,18.23
2022-09-10T10:30:57.693Z,18.19
2022-09-10T10:34:30.174Z,18.18
2022-09-10T10:37:53.656Z,18.25
2022-09-10T10:41:49.663Z,18.37
2022-09-10T10:45:19.183Z,18.51
2022-09-10T10:48:44.693Z,18.56
2022-09-10T10:52:05.094Z,18.56
2022-09-10T10:55:24.377Z,18.75
2022-09-10T10:58:52.193Z,18.90
2022-09-10T11:02:15.187Z,18.92
2022-09-10T11:05:31.517Z,18.82
2022-09-10T11:08:46.947Z,18.75
2022-09-10T11:12:03.595Z,18.68
2022-09-10T11:15:23.816Z,18.60
2022-09-10T11:18:39.967Z,18.60
2022-09-10T11:21:55.353Z,18.65
2022-09-10T11:25:12.767Z,18.78
2022-09-10T11:28:29.176Z,19.00
2022-09-10T11:31:43.660Z,19.19
2022-09-10T11:34:59.228Z,19.30
2022-09-10T11:38:18.494Z,19.33
2022-09-10T11:41:32.704Z,19.28
2022-09-10T11:44:55.359Z,19.12
2022-09-10T11:48:13.511Z,19.09
2022-09-10T11:51:31.161Z,19.19
2022-09-10T11:54:42.220Z,19.43
2022-09-10T11:58:02.749Z,19.68
2022-09-10T12:01:22.830Z,19.80
2022-09-10T12:04:55.422Z,19.76
2022-09-10T12:08:17.598Z,19.78
2022-09-10T12:11:36.553Z,19.83
2022-09-10T12:14:47.050Z,19.94
2022-09-10T12:18:01.657Z,20.03
2022-09-10T12:21:26.001Z,19.95
2022-09-10T12:24:38.752Z,19.73
2022-09-10T12:27:51.544Z,19.64
2022-09-10T12:31:03.700Z,19.57
2022-09-10T12:34:19.889Z,19.52
2022-09-10T12:37:30.345Z,19.52
2022-09-10T12:40:45.826Z,19.58
2022-09-10T12:43:58.496Z,19.83
2022-09-10T12:47:33.187Z,20.21
2022-09-10T12:50:56.756Z,20.40
2022-09-10T12:54:37.016Z,20.44
2022-09-10T12:57:58.655Z,20.46
2022-09-10T13:01:19.444Z,20.42
2022-09-10T13:04:31.418Z,20.47
2022-09-10T13:07:44.245Z,20.45
2022-09-10T13:11:15.772Z,20.58
2022-09-10T13:14:30.941Z,20.62
2022-09-10T13:18:28.104Z,20.58
2022-09-10T13:21:54.849Z,20.54
2022-09-10T13:25:26.467Z,20.53
2022-09-10T13:29:05.290Z,20.51
2022-09-10T13:32:26.468Z,20.51
2022-09-10T13:36:10.541Z,20.59
2022-09-10T13:39:36.402Z,20.68
2022-09-10T13:43:09.440Z,20.72
2022-09-10T13:46:28.283Z,20.75
2022-09-10T13:49:47.328Z,20.58
2022-09-10T13:53:01.577Z,20.75
2022-09-10T13:56:17.848Z,20.83
2022-09-10T13:59:34.008Z,20.79
2022-09-10T14:02:47.331Z,20.89
2022-09-10T14:06:00.267Z,20.97
2022-09-10T14:09:12.700Z,20.95
2022-09-10T14:12:28.025Z,21.14
2022-09-10T14:15:40.952Z,21.23
2022-09-10T14:18:55.534Z,21.19
2022-09-10T14:22:09.866Z,21.04
2022-09-10T14:25:31.440Z,20.89
2022-09-10T14:28:53.389Z,20.82
2022-09-10T14:32:27.899Z,20.78
2022-09-10T14:35:40.076Z,20.69
2022-09-10T14:38:56.773Z,20.81
2022-09-10T14:42:22.944Z,20.80
2022-09-10T14:45:43.887Z,20.79
2022-09-10T14:49:11.126Z,20.80
2022-09-10T14:52:22.370Z,20.90
2022-09-10T14:55:34.011Z,20.91
2022-09-10T14:58:45.973Z,20.96
2022-09-10T15:01:56.536Z,21.08
2022-09-10T15:05:15.078Z,21.03
2022-09-10T15:08:25.559Z,20.99
2022-09-10T15:11:38.122Z,20.84
2022-09-10T15:14:48.266Z,20.61
2022-09-10T15:17:58.529Z,20.60
2022-09-10T15:21:11.986Z,20.60
2022-09-10T15:24:23.735Z,20.41
2022-09-10T15:27:33.980Z,20.48
2022-09-10T15:30:44.448Z,20.39
2022-09-10T15:33:54.777Z,20.49
2022-09-10T15:37:06.747Z,20.38
2022-09-10T15:40:17.170Z,20.35
2022-09-10T15:43:27.250Z,20.25
2022-09-10T15:46:42.024Z,20.14
2022-09-10T15:49:53.681Z,20.18
2022-09-10T15:53:10.421Z,20.06
2022-09-10T15:56:24.812Z,19.95
2022-09-10T15:59:34.937Z,19.81
2022-09-10T16:02:47.871Z,19.73
2022-09-10T16:06:02.362Z,19.74
2022-09-10T16:09:15.315Z,19.74
2022-09-10T16:12:27.260Z,19.69
2022-09-10T16:15:38.271Z,19.61
2022-09-10T16:18:51.597Z,19.52
2022-09-10T16:22:02.250Z,19.53
2022-09-10T16:25:14.260Z,19.48
2022-09-10T16:28:26.653Z,19.45
2022-09-10T16:31:39.086Z,19.34
2022-09-10T16:34:49.268Z,19.28
2022-09-10T16:38:00.519Z,19.24
2022-09-10T16:41:13.711Z,19.24
2022-09-10T16:44:24.671Z,19.21
2022-09-10T16:47:34.601Z,19.13
2022-09-10T16:50:44.623Z,19.14
2022-09-10T16:53:57.539Z,19.10
2022-09-10T16:57:09.422Z,19.07
2022-09-10T17:00:19.598Z,19.02
2022-09-10T17:03:31.401Z,18.92
2022-09-10T17:06:42.722Z,18.82
2022-09-10T17:09:55.456Z,18.78
2022-09-10T17:13:11.259Z,18.70
2022-09-10T17:16:25.638Z,18.64
2022-09-10T17:19:36.108Z,18.52
2022-09-10T17:22:46.509Z,18.47
2022-09-10T17:25:57.384Z,18.39
2022-09-10T17:29:11.048Z,18.32
2022-09-10T17:32:21.303Z,18.30
2022-09-10T17:35:32.251Z,18.27
2022-09-10T17:38:42.484Z,18.23
2022-09-10T17:41:55.225Z,18.21
2022-09-10T17:45:07.943Z,18.18
2022-09-10T17:48:18.173Z,18.19
2022-09-10T17:51:30.107Z,18.13
2022-09-10T17:54:40.209Z,18.10
2022-09-10T17:57:50.424Z,18.08
2022-09-10T18:01:04.673Z,18.06
2022-09-10T18:04:15.736Z,18.04
2022-09-10T18:07:25.842Z,17.99
2022-09-10T18:10:36.708Z,17.95
2022-09-10T18:13:50.474Z,17.88
2022-09-10T18:17:01.932Z,17.82
2022-09-10T18:20:12.363Z,17.80
2022-09-10T18:23:22.420Z,17.76
2022-09-10T18:26:39.371Z,17.74
2022-09-10T18:29:49.862Z,17.66
2022-09-10T18:33:01.696Z,17.57
2022-09-10T18:36:14.182Z,17.52
2022-09-10T18:39:27.021Z,17.44
2022-09-10T18:42:38.175Z,17.37
2022-09-10T18:45:48.502Z,17.30
2022-09-10T18:49:01.073Z,17.26
2022-09-10T18:52:12.895Z,17.23
2022-09-10T18:55:32.626Z,17.22
2022-09-10T18:58:43.112Z,17.15
2022-09-10T19:01:55.770Z,17.06
2022-09-10T19:05:11.959Z,17.04
2022-09-10T19:08:22.878Z,17.02
2022-09-10T19:11:35.562Z,16.95
2022-09-10T19:14:45.907Z,16.90
2022-09-10T19:17:56.245Z,16.83
2022-09-10T19:21:07.858Z,16.79
2022-09-10T19:24:25.397Z,16.70
2022-09-10T19:27:45.099Z,16.66
2022-09-10T19:30:55.048Z,16.63
2022-09-10T19:34:07.010Z,16.60
2022-09-10T19:37:19.567Z,16.55
2022-09-10T19:40:30.080Z,16.48
2022-09-10T19:43:41.184Z,16.49
2022-09-10T19:46:51.351Z,16.48
2022-09-10T19:50:01.487Z,16.44
2022-09-10T19:53:13.503Z,16.42
2022-09-10T19:56:26.125Z,16.40
2022-09-10T19:59:36.550Z,16.37
2022-09-10T20:02:50.383Z,16.30
2022-09-10T20:06:00.900Z,16.27
2022-09-10T20:09:15.082Z,16.24
2022-09-10T20:12:25.281Z,16.20
2022-09-10T20:15:43.596Z,16.19
2022-09-10T20:18:55.960Z,16.19
2022-09-10T20:22:06.393Z,16.16
2022-09-10T20:25:18.268Z,16.13
2022-09-10T20:28:28.379Z,16.10
2022-09-10T20:31:41.018Z,16.07
2022-09-10T20:34:51.436Z,16.05
2022-09-10T20:38:01.634Z,16.02
2022-09-10T20:41:13.128Z,16.00
2022-09-10T20:44:23.488Z,15.94
2022-09-10T20:47:37.299Z,15.89
2022-09-10T20:50:55.038Z,15.88
2022-09-10T20:54:07.054Z,15.83
2022-09-10T20:57:18.450Z,15.80
2022-09-10T21:00:28.955Z,15.76
2022-09-10T21:03:40.875Z,15.76
2022-09-10T21:06:51.398Z,15.78
2022-09-10T21:10:01.878Z,15.78
2022-09-10T21:13:13.406Z,15.82
2022-09-10T21:16:26.859Z,15.86
2022-09-10T21:19:37.349Z,15.85
2022-09-10T21:22:47.880Z,15.88
2022-09-10T21:25:58.432Z,15.88
2022-09-10T21:29:12.753Z,15.91
2022-09-10T21:32:23.312Z,15.90
2022-09-10T21:35:33.481Z,15.86
2022-09-10T21:38:48.085Z,15.90
2022-09-10T21:41:59.742Z,15.88
2022-09-10T21:45:12.053Z,15.89
2022-09-10T21:48:23.272Z,15.92
2022-09-10T21:51:33.860Z,15.93
2022-09-10T21:54:44.546Z,15.94
2022-09-10T21:57:54.959Z,15.95
2022-09-10T22:01:12.252Z,15.96
2022-09-10T22:04:23.158Z,15.96
2022-09-10T22:07:34.113Z,15.93
2022-09-10T22:10:44.194Z,15.89
2022-09-10T22:13:55.622Z,15.86
2022-09-10T22:17:07.064Z,15.85
2022-09-10T22:20:18.084Z,15.83
2022-09-10T22:23:29.994Z,15.78
2022-09-10T22:26:42.516Z,15.75
2022-09-10T22:29:52.951Z,15.74
2022-09-10T22:33:04.523Z,15.75
2022-09-10T22:36:18.665Z,15.71
2022-09-10T22:39:29.707Z,15.70
2022-09-10T22:42:39.974Z,15.71
2022-09-10T22:45:50.031Z,15.70
2022-09-10T22:49:02.105Z,15.66
2022-09-10T22:52:12.440Z,15.67
2022-09-10T22:55:22.562Z,15.64
2022-09-10T22:58:32.884Z,15.62
2022-09-10T23:01:47.197Z,15.59
2022-09-10T23:04:59.949Z,15.61
2022-09-10T23:08:10.887Z,15.61
2022-09-10T23:11:23.134Z,15.57
2022-09-10T23:14:33.678Z,15.55
2022-09-10T23:17:43.738Z,15.54
2022-09-10T23:20:54.901Z,15.53
2022-09-10T23:24:07.318Z,15.49
2022-09-10T23:27:17.730Z,15.45
2022-09-10T23:30:29.527Z,15.45
2022-09-10T23:33:39.460Z,15.44
2022-09-10T23:36:51.231Z,15.38
2022-09-10T23:40:02.038Z,15.35
2022-09-10T23:43:12.774Z,15.34
2022-09-10T23:46:23.194Z,15.34
2022-09-10T23:49:33.433Z,15.31
2022-09-10T23:52:44.915Z,15.28
2022-09-10T23:55:55.332Z,15.25
2022-09-10T23:59:05.919Z,15.22
